Alpine Link — V7SZ7 — position and weather

sailwx.info

Track history (hours):
 
Tides and Currents Weather Stations Pressure Air Temp Water Temp Dewpoint Dewpoint Depression Visibility Wind Speed Wind Dir Waves Ship Positions

Alpine Link

Last reported at 2017-Nov-11 17:10 UTC. Time now 2017-Dec-15 06:17 UTC.
Position N 11°10' W 075°03'.
Warning: this ship's position is 33 days out of date.

Length 183 m; draft 7 m.

Type: Tanker. MMSI: 538003758.

Date/timePositionNaut miles runAvg speedWind from/ knotsBaromVisibWave heightAir tempDewpointWater temp
2017-Nov-11 17:10N 11°10' W 075°03'212.8
2017-Nov-11 17:00N 11°09' W 075°01'611.4
2017-Nov-11 16:30N 11°07' W 074°56'1 2.6
2017-Nov-11 16:00N 11°06' W 074°55'1 0.0
2017-Nov-10 23:28N 11°06' W 074°56'0 0.0
2017-Nov-10 23:01N 11°06' W 074°56'0 0.0
2017-Nov-10 22:31N 11°06' W 074°56'2 3.0
2017-Nov-10 22:00N 11°07' W 074°54'4 7.3
2017-Nov-10 21:30N 11°05' W 074°51'611.6
2017-Nov-10 21:00N 11°01' W 074°47'4 7.3
2017-Nov-10 20:28N 10°57' W 074°46'0 0.0
2017-Nov-10 20:01N 10°57' W 074°46'0 0.0
2017-Nov-10 19:31N 10°57' W 074°46'0 0.0
2017-Nov-10 19:01N 10°57' W 074°46'0 0.0
2017-Nov-10 18:31N 10°57' W 074°46'0 0.0
2017-Nov-10 18:01N 10°57' W 074°46'0 0.0
2017-Nov-10 17:31N 10°57' W 074°46'0 0.0
2017-Nov-10 17:01N 10°57' W 074°46'0 0.0
2017-Nov-10 16:31N 10°57' W 074°46'0 0.0
2017-Nov-10 16:00N 10°57' W 074°46'0 0.0
2017-Nov-10 15:31N 10°57' W 074°46'0 0.0
2017-Nov-10 15:01N 10°57' W 074°46'0 0.0
2017-Nov-10 14:31N 10°57' W 074°46'0 0.0
2017-Nov-10 14:00N 10°57' W 074°46'0 0.0
2017-Nov-10 13:30N 10°57' W 074°46'0 0.0
2017-Nov-10 13:00N 10°57' W 074°46'0 0.0
2017-Nov-10 12:30N 10°57' W 074°46'0 0.0
2017-Nov-10 12:00N 10°57' W 074°46'0 0.0
2017-Nov-10 11:31N 10°57' W 074°46'0 0.0
2017-Nov-10 11:00N 10°57' W 074°46'0 0.0
2017-Nov-10 10:21N 10°57' W 074°46'0 0.0
2017-Nov-10 09:57N 10°57' W 074°46'0 0.0
2017-Nov-10 09:27N 10°57' W 074°46'0 0.0
2017-Nov-10 08:03N 10°57' W 074°46'0 0.0
2017-Nov-09 00:23N 10°57' W 074°46'0 0.0
2017-Nov-08 23:58N 10°57' W 074°46'0 0.6
2017-Nov-08 23:29N 10°57' W 074°45'3 5.5
2017-Nov-08 22:59N 11°00' W 074°46'4 7.6
2017-Nov-08 22:30N 11°02' W 074°49'4 7.2
2017-Nov-08 22:00N 11°05' W 074°51'3 6.4
2017-Nov-08 21:30N 11°07' W 074°54'2 0.9
2017-Nov-08 19:08N 11°06' W 074°56'0 0.1
2017-Nov-08 18:59N 11°06' W 074°56'0 0.0
2017-Nov-08 18:29N 11°06' W 074°56'0 0.1
2017-Nov-08 17:32N 11°06' W 074°56'0 0.1
2017-Nov-08 17:23N 11°06' W 074°56'0 0.0
2017-Nov-08 16:50N 11°06' W 074°56'0 0.1
2017-Nov-08 16:26N 11°06' W 074°56'0 0.0
2017-Nov-08 15:59N 11°06' W 074°56'0 0.0
2017-Nov-08 15:17N 11°06' W 074°56'0 0.1
2017-Nov-08 14:56N 11°06' W 074°56'0 0.0
2017-Nov-08 14:20N 11°06' W 074°56'0 0.0
2017-Nov-08 13:59N 11°06' W 074°56'0 0.0
2017-Nov-08 13:05N 11°06' W 074°56'0 0.1
2017-Nov-08 12:50N 11°06' W 074°56'0 0.0
2017-Nov-08 12:29N 11°06' W 074°56'0 0.0
2017-Nov-08 11:59N 11°06' W 074°56'  
Track history (hours):
 
Tides and Currents Weather Stations Pressure Air Temp Water Temp Dewpoint Dewpoint Depression Visibility Wind Speed Wind Dir Waves Ship Positions

Alpine Link

Last reported at 2017-Nov-11 17:10 UTC. Time now 2017-Dec-15 06:17 UTC.
Position N 11°10' W 075°03'.
Warning: this ship's position is 33 days out of date.

Length 183 m; draft 7 m.

Type: Tanker. MMSI: 538003758.

Date/timePositionNaut miles runAvg speedWind from/ knotsBaromVisibWave heightAir tempDewpointWater temp
2017-Nov-11 17:10N 11°10' W 075°03'212.8
2017-Nov-11 17:00N 11°09' W 075°01'611.4
2017-Nov-11 16:30N 11°07' W 074°56'1 2.6
2017-Nov-11 16:00N 11°06' W 074°55'1 0.0
2017-Nov-10 23:28N 11°06' W 074°56'0 0.0
2017-Nov-10 23:01N 11°06' W 074°56'0 0.0
2017-Nov-10 22:31N 11°06' W 074°56'2 3.0
2017-Nov-10 22:00N 11°07' W 074°54'4 7.3
2017-Nov-10 21:30N 11°05' W 074°51'611.6
2017-Nov-10 21:00N 11°01' W 074°47'4 7.3
2017-Nov-10 20:28N 10°57' W 074°46'0 0.0
2017-Nov-10 20:01N 10°57' W 074°46'0 0.0
2017-Nov-10 19:31N 10°57' W 074°46'0 0.0
2017-Nov-10 19:01N 10°57' W 074°46'0 0.0
2017-Nov-10 18:31N 10°57' W 074°46'0 0.0
2017-Nov-10 18:01N 10°57' W 074°46'0 0.0
2017-Nov-10 17:31N 10°57' W 074°46'0 0.0
2017-Nov-10 17:01N 10°57' W 074°46'0 0.0
2017-Nov-10 16:31N 10°57' W 074°46'0 0.0
2017-Nov-10 16:00N 10°57' W 074°46'0 0.0
2017-Nov-10 15:31N 10°57' W 074°46'0 0.0
2017-Nov-10 15:01N 10°57' W 074°46'0 0.0
2017-Nov-10 14:31N 10°57' W 074°46'0 0.0
2017-Nov-10 14:00N 10°57' W 074°46'0 0.0
2017-Nov-10 13:30N 10°57' W 074°46'0 0.0
2017-Nov-10 13:00N 10°57' W 074°46'0 0.0
2017-Nov-10 12:30N 10°57' W 074°46'0 0.0
2017-Nov-10 12:00N 10°57' W 074°46'0 0.0
2017-Nov-10 11:31N 10°57' W 074°46'0 0.0
2017-Nov-10 11:00N 10°57' W 074°46'0 0.0
2017-Nov-10 10:21N 10°57' W 074°46'0 0.0
2017-Nov-10 09:57N 10°57' W 074°46'0 0.0
2017-Nov-10 09:27N 10°57' W 074°46'0 0.0
2017-Nov-10 08:03N 10°57' W 074°46'0 0.0
2017-Nov-09 00:23N 10°57' W 074°46'0 0.0
2017-Nov-08 23:58N 10°57' W 074°46'0 0.6
2017-Nov-08 23:29N 10°57' W 074°45'3 5.5
2017-Nov-08 22:59N 11°00' W 074°46'4 7.6
2017-Nov-08 22:30N 11°02' W 074°49'4 7.2
2017-Nov-08 22:00N 11°05' W 074°51'3 6.4
2017-Nov-08 21:30N 11°07' W 074°54'2 0.9
2017-Nov-08 19:08N 11°06' W 074°56'0 0.1
2017-Nov-08 18:59N 11°06' W 074°56'0 0.0
2017-Nov-08 18:29N 11°06' W 074°56'0 0.1
2017-Nov-08 17:32N 11°06' W 074°56'0 0.1
2017-Nov-08 17:23N 11°06' W 074°56'0 0.0
2017-Nov-08 16:50N 11°06' W 074°56'0 0.1
2017-Nov-08 16:26N 11°06' W 074°56'0 0.0
2017-Nov-08 15:59N 11°06' W 074°56'0 0.0
2017-Nov-08 15:17N 11°06' W 074°56'0 0.1
2017-Nov-08 14:56N 11°06' W 074°56'0 0.0
2017-Nov-08 14:20N 11°06' W 074°56'0 0.0
2017-Nov-08 13:59N 11°06' W 074°56'0 0.0
2017-Nov-08 13:05N 11°06' W 074°56'0 0.1
2017-Nov-08 12:50N 11°06' W 074°56'0 0.0
2017-Nov-08 12:29N 11°06' W 074°56'0 0.0
2017-Nov-08 11:59N 11°06' W 074°56'  

Dump ship's entire track history